Time;durP1;ratioP1;P1;durP2;ratioP2;P2;SDS_P1;SDS_P2;PMS_P1;PMS_P2;Temp;Humidity;BMP_temperature;BMP_pressure;BME280_temperature;BME280_humidity;BME280_pressure;Samples;Min_cycle;Max_cycle;Signal;HPM_P1;HPM_P2
2022/11/15 00:00:05;;;;;;;;;;;;;;;15.32;63.77;100486.94;1265982;23;646;-70
2022/11/15 00:00:55;;;;;;;;;;;;;;;15.32;63.54;100483.41;1265665;23;669;-71
2022/11/15 00:01:46;;;;;;;;;;;;;;;15.31;64.13;100477.19;1260460;23;618;-71
2022/11/15 00:02:36;;;;;;;;;;;;;;;15.31;63.98;100485.25;1261773;23;1905;-71
2022/11/15 00:03:27;;;;;;;;;;;;;;;15.32;64.17;100480.75;1260843;23;638;-70
2022/11/15 00:04:17;;;;;;;;;;;;;;;15.31;63.96;100482.56;1261125;23;622;-71
2022/11/15 00:05:07;;;;;;;;;;;;;;;15.33;63.80;100477.06;1267334;23;661;-70
2022/11/15 00:05:58;;;;;;;;;;;;;;;15.32;63.77;100481.59;1267407;23;693;-70
2022/11/15 00:06:48;;;;;;;;;;;;;;;15.30;64.03;100488.94;1265720;23;682;-70
2022/11/15 00:07:39;;;;;;;;;;;;;;;15.29;64.70;100497.97;1265866;23;610;-70
2022/11/15 00:08:29;;;;;;;;;;;;;;;15.26;64.12;100487.50;1267464;23;708;-70
2022/11/15 00:09:19;;;;;;;;;;;;;;;15.28;64.35;100489.06;1265730;23;677;-70
2022/11/15 00:10:10;;;;;;;;;;;;;;;15.29;63.90;100481.84;1265792;23;638;-70
2022/11/15 00:11:00;;;;;;;;;;;;;;;15.33;63.99;100482.44;1265684;23;781;-70
2022/11/15 00:11:51;;;;;;;;;;;;;;;15.32;64.11;100481.59;1265809;23;686;-70
2022/11/15 00:12:41;;;;;;;;;;;;;;;15.33;63.99;100477.91;1267443;23;649;-71
2022/11/15 00:13:32;;;;;;;;;;;;;;;15.34;63.95;100479.63;1265752;23;654;-71
2022/11/15 00:14:22;;;;;;;;;;;;;;;15.36;63.73;100476.78;1265580;23;818;-71
2022/11/15 00:15:12;;;;;;;;;;;;;;;15.33;63.98;100469.84;1265767;23;681;-71
2022/11/15 00:16:03;;;;;;;;;;;;;;;15.33;63.75;100472.53;1265899;23;641;-71
2022/11/15 00:16:53;;;;;;;;;;;;;;;15.33;64.16;100472.53;1265655;23;657;-70
2022/11/15 00:17:44;;;;;;;;;;;;;;;15.33;64.23;100477.91;1265945;23;689;-70
2022/11/15 00:18:34;;;;;;;;;;;;;;;15.31;63.82;100469.16;1265673;23;670;-70
2022/11/15 00:19:25;;;;;;;;;;;;;;;15.33;64.04;100466.31;1265805;23;720;-69
2022/11/15 00:20:15;;;;;;;;;;;;;;;15.33;64.16;100464.50;1267386;23;602;-69
2022/11/15 00:21:06;;;;;;;;;;;;;;;15.35;63.94;100464.34;1265692;23;752;-70
2022/11/15 00:21:56;;;;;;;;;;;;;;;15.36;64.07;100468.75;1265449;23;622;-70
2022/11/15 00:22:46;;;;;;;;;;;;;;;15.34;63.73;100470.72;1265596;23;1939;-71
2022/11/15 00:23:37;;;;;;;;;;;;;;;15.33;63.99;100471.69;1265929;23;557;-71
2022/11/15 00:24:27;;;;;;;;;;;;;;;15.35;64.01;100465.19;1265600;23;643;-71
2022/11/15 00:25:18;;;;;;;;;;;;;;;15.34;64.10;100468.03;1267271;23;681;-71
2022/11/15 00:26:09;;;;;;;;;;;;;;;15.32;64.09;100460.09;1267395;23;618;-71
2022/11/15 00:26:59;;;;;;;;;;;;;;;15.31;64.22;100466.47;1264651;23;572;-71
2022/11/15 00:27:51;;;;;;;;;;;;;;;15.29;64.12;100460.38;1265917;23;589;-71
2022/11/15 00:28:42;;;;;;;;;;;;;;;15.31;64.43;100463.78;1264890;23;725;-72
2022/11/15 00:29:32;;;;;;;;;;;;;;;15.32;64.40;100459.25;1265854;23;595;-72
2022/11/15 00:30:22;;;;;;;;;;;;;;;15.31;64.27;100460.25;1267158;23;658;-72
2022/11/15 00:31:13;;;;;;;;;;;;;;;15.31;64.21;100458.41;1266817;23;653;-71
2022/11/15 00:32:03;;;;;;;;;;;;;;;15.33;64.25;100463.63;1265407;23;614;-71
2022/11/15 00:32:54;;;;;;;;;;;;;;;15.32;64.48;100464.63;1267273;23;629;-70
2022/11/15 00:33:45;;;;;;;;;;;;;;;15.33;64.45;100466.31;1265320;23;787;-70
2022/11/15 00:34:35;;;;;;;;;;;;;;;15.36;64.26;100466.06;1266322;23;672;-70
2022/11/15 00:35:26;;;;;;;;;;;;;;;15.34;64.56;100468.03;1265630;23;646;-70
2022/11/15 00:36:17;;;;;;;;;;;;;;;15.32;64.29;100470.84;1265095;23;579;-70
2022/11/15 00:37:07;;;;;;;;;;;;;;;15.32;64.32;100465.47;1265530;23;653;-70
2022/11/15 00:37:58;;;;;;;;;;;;;;;15.32;64.53;100460.09;1267316;23;783;-70
2022/11/15 00:38:48;;;;;;;;;;;;;;;15.33;64.24;100466.31;1265657;23;741;-70
2022/11/15 00:39:39;;;;;;;;;;;;;;;15.31;64.50;100461.09;1265746;23;775;-70
2022/11/15 00:40:29;;;;;;;;;;;;;;;15.34;64.45;100459.97;1265967;23;627;-70
2022/11/15 00:41:19;;;;;;;;;;;;;;;15.32;64.50;100470.84;1267280;23;578;-70
2022/11/15 00:42:10;;;;;;;;;;;;;;;15.32;64.35;100464.63;1265636;23;603;-71
2022/11/15 00:43:00;;;;;;;;;;;;;;;15.32;64.85;100468.16;1265532;23;534;-70
2022/11/15 00:43:51;;;;;;;;;;;;;;;15.31;64.77;100462.94;1265717;23;628;-71
2022/11/15 00:44:41;;;;;;;;;;;;;;;15.29;64.52;100461.22;1267465;23;613;-70
2022/11/15 00:45:32;;;;;;;;;;;;;;;15.29;64.57;100463.06;1266839;23;626;-70
2022/11/15 00:46:22;;;;;;;;;;;;;;;15.29;64.96;100455.00;1265855;23;662;-71
2022/11/15 00:47:12;;;;;;;;;;;;;;;15.28;64.59;100454.16;1265585;23;729;-71
2022/11/15 00:48:03;;;;;;;;;;;;;;;15.31;64.36;100453.03;1267258;23;669;-70
2022/11/15 00:48:53;;;;;;;;;;;;;;;15.33;64.48;100452.91;1265578;23;622;-70
2022/11/15 00:49:44;;;;;;;;;;;;;;;15.31;64.70;100449.50;1265607;23;643;-70
2022/11/15 00:50:34;;;;;;;;;;;;;;;15.30;64.69;100451.34;1265899;23;650;-70
2022/11/15 00:51:24;;;;;;;;;;;;;;;15.29;64.67;100455.00;1265457;23;641;-70
2022/11/15 00:52:15;;;;;;;;;;;;;;;15.29;64.66;100449.63;1260895;23;554;-70
2022/11/15 00:53:05;;;;;;;;;;;;;;;15.26;64.87;100447.22;1261823;23;630;-70
2022/11/15 00:53:56;;;;;;;;;;;;;;;15.28;64.79;100453.31;1265844;23;727;-70
2022/11/15 00:54:46;;;;;;;;;;;;;;;15.29;64.85;100445.13;1267147;23;728;-70
2022/11/15 00:55:36;;;;;;;;;;;;;;;15.27;64.70;100446.25;1267203;23;625;-70
2022/11/15 00:56:27;;;;;;;;;;;;;;;15.26;64.83;100444.53;1265749;23;688;-70
2022/11/15 00:57:17;;;;;;;;;;;;;;;15.26;64.96;100441.84;1265518;23;570;-70
2022/11/15 00:58:08;;;;;;;;;;;;;;;15.29;64.58;100444.28;1267351;23;661;-72
2022/11/15 00:58:58;;;;;;;;;;;;;;;15.28;64.71;100445.25;1266355;23;696;-70
2022/11/15 00:59:49;;;;;;;;;;;;;;;15.29;64.79;100444.28;1265016;23;634;-71
2022/11/15 01:00:39;;;;;;;;;;;;;;;15.32;64.47;100444.00;1265806;23;669;-72
2022/11/15 01:01:30;;;;;;;;;;;;;;;15.29;64.45;100439.75;1265732;23;654;-71
2022/11/15 01:02:20;;;;;;;;;;;;;;;15.29;65.11;100438.91;1265447;23;1234;-70
2022/11/15 01:03:10;;;;;;;;;;;;;;;15.27;64.93;100441.72;1265654;23;582;-71
2022/11/15 01:04:01;;;;;;;;;;;;;;;15.29;64.80;100444.28;1265661;23;606;-71
2022/11/15 01:04:51;;;;;;;;;;;;;;;15.30;64.74;100440.59;1267360;23;672;-70
2022/11/15 01:05:42;;;;;;;;;;;;;;;15.28;64.91;100434.53;1267298;23;649;-70
2022/11/15 01:06:32;;;;;;;;;;;;;;;15.27;65.11;100436.34;1265553;23;673;-70
2022/11/15 01:07:23;;;;;;;;;;;;;;;15.27;64.77;100440.88;1267306;23;669;-70
2022/11/15 01:08:13;;;;;;;;;;;;;;;15.26;64.76;100436.50;1265246;23;641;-70
2022/11/15 01:09:03;;;;;;;;;;;;;;;15.29;65.10;100431.69;1260921;23;654;-70
2022/11/15 01:09:54;;;;;;;;;;;;;;;15.28;65.29;100431.84;1260129;23;566;-71
2022/11/15 01:10:44;;;;;;;;;;;;;;;15.28;64.91;100431.84;1267147;23;657;-71
2022/11/15 01:11:35;;;;;;;;;;;;;;;15.31;64.99;100436.09;1265768;23;662;-70
2022/11/15 01:12:25;;;;;;;;;;;;;;;15.30;65.27;100435.22;1265451;23;630;-70
2022/11/15 01:13:16;;;;;;;;;;;;;;;15.28;65.07;100437.19;1267292;23;645;-70
2022/11/15 01:14:06;;;;;;;;;;;;;;;15.31;64.78;100428.03;1265799;23;626;-70
2022/11/15 01:14:56;;;;;;;;;;;;;;;15.28;65.31;100431.84;1265542;23;676;-70
2022/11/15 01:15:47;;;;;;;;;;;;;;;15.26;65.28;100431.13;1260851;23;830;-70
2022/11/15 01:16:37;;;;;;;;;;;;;;;15.27;65.19;100430.13;1261625;23;685;-70
2022/11/15 01:17:28;;;;;;;;;;;;;;;15.27;65.10;100427.44;1268126;23;627;-70
2022/11/15 01:18:18;;;;;;;;;;;;;;;15.28;65.32;100431.84;1265477;23;622;-70
2022/11/15 01:19:09;;;;;;;;;;;;;;;15.29;65.10;100436.22;1265516;23;669;-70
2022/11/15 01:19:59;;;;;;;;;;;;;;;15.29;65.37;100433.53;1265853;23;680;-70
2022/11/15 01:20:49;;;;;;;;;;;;;;;15.28;65.25;100429.16;1265465;23;551;-70
2022/11/15 01:21:40;;;;;;;;;;;;;;;15.28;65.20;100439.88;1260773;23;666;-70
2022/11/15 01:22:30;;;;;;;;;;;;;;;15.26;64.91;100434.66;1261765;23;638;-70
2022/11/15 01:23:21;;;;;;;;;;;;;;;15.27;65.04;100438.19;1267276;23;649;-70
2022/11/15 01:24:11;;;;;;;;;;;;;;;15.26;65.12;100431.13;1266004;23;650;-70
2022/11/15 01:25:01;;;;;;;;;;;;;;;15.25;65.42;100432.09;1267304;23;590;-70
2022/11/15 01:25:52;;;;;;;;;;;;;;;15.25;65.38;100430.28;1265728;23;571;-70
2022/11/15 01:26:42;;;;;;;;;;;;;;;15.27;65.23;100422.94;1265429;23;666;-71
2022/11/15 01:27:33;;;;;;;;;;;;;;;15.26;65.09;100434.66;1267289;23;650;-70
2022/11/15 01:28:23;;;;;;;;;;;;;;;15.26;65.48;100426.59;1265399;23;585;-70
2022/11/15 01:29:13;;;;;;;;;;;;;;;15.26;65.20;100433.81;1265005;23;649;-70
2022/11/15 01:30:04;;;;;;;;;;;;;;;15.26;65.18;100431.13;1265852;23;677;-70
2022/11/15 01:30:54;;;;;;;;;;;;;;;15.28;65.22;100431.84;1265616;23;638;-70
2022/11/15 01:31:45;;;;;;;;;;;;;;;15.29;65.09;100428.16;1267208;23;669;-71
2022/11/15 01:32:35;;;;;;;;;;;;;;;15.27;65.02;100424.75;1265497;23;670;-71
2022/11/15 01:33:26;;;;;;;;;;;;;;;15.28;64.94;100421.94;1266446;23;641;-70
2022/11/15 01:34:16;;;;;;;;;;;;;;;15.26;65.10;100418.56;1265440;23;665;-71
2022/11/15 01:35:07;;;;;;;;;;;;;;;15.27;64.87;100419.41;1265421;23;669;-70
2022/11/15 01:35:57;;;;;;;;;;;;;;;15.28;64.99;100421.94;1267271;23;658;-71
2022/11/15 01:36:47;;;;;;;;;;;;;;;15.28;65.39;100424.63;1265450;23;611;-71
2022/11/15 01:37:38;;;;;;;;;;;;;;;15.27;65.11;100419.41;1267288;23;629;-71
2022/11/15 01:38:28;;;;;;;;;;;;;;;15.27;64.93;100414.88;1267195;23;618;-71
2022/11/15 01:39:19;;;;;;;;;;;;;;;15.26;65.24;100421.22;1260905;23;630;-71
2022/11/15 01:40:09;;;;;;;;;;;;;;;15.25;64.98;100416.00;1261715;23;672;-70
2022/11/15 01:40:59;;;;;;;;;;;;;;;15.25;65.39;100416.00;1268164;23;661;-71
2022/11/15 01:41:50;;;;;;;;;;;;;;;15.25;65.42;100410.63;1265584;23;618;-71
2022/11/15 01:42:41;;;;;;;;;;;;;;;15.27;65.41;100414.03;1267147;23;1892;-71
2022/11/15 01:43:31;;;;;;;;;;;;;;;15.26;65.38;100415.88;1264838;23;661;-72
2022/11/15 01:44:22;;;;;;;;;;;;;;;15.26;65.26;100417.69;1265647;23;634;-71
2022/11/15 01:45:12;;;;;;;;;;;;;;;15.25;65.22;100414.16;1265421;23;674;-71
2022/11/15 01:46:03;;;;;;;;;;;;;;;15.28;65.45;100413.91;1265561;23;638;-71
2022/11/15 01:46:53;;;;;;;;;;;;;;;15.27;65.38;100408.66;1267199;23;700;-71
2022/11/15 01:47:44;;;;;;;;;;;;;;;15.27;65.39;100403.28;1260762;23;657;-71
2022/11/15 01:48:34;;;;;;;;;;;;;;;15.26;65.50;100407.81;1261675;23;625;-71
2022/11/15 01:49:25;;;;;;;;;;;;;;;15.27;65.42;100414.03;1267239;23;590;-71
2022/11/15 01:50:15;;;;;;;;;;;;;;;15.25;65.47;100406.13;1267181;23;661;-71
2022/11/15 01:51:05;;;;;;;;;;;;;;;15.27;65.56;100405.97;1265402;23;622;-72
2022/11/15 01:51:56;;;;;;;;;;;;;;;15.24;65.16;100403.56;1265421;23;682;-71
2022/11/15 01:52:46;;;;;;;;;;;;;;;15.22;65.10;100406.41;1266276;23;778;-71
2022/11/15 01:53:37;;;;;;;;;;;;;;;15.24;65.28;100398.19;1265648;23;626;-71
2022/11/15 01:54:27;;;;;;;;;;;;;;;15.24;65.62;100407.09;1267254;23;630;-71
2022/11/15 01:55:17;;;;;;;;;;;;;;;15.24;65.42;100400.88;1267290;23;602;-71
2022/11/15 01:56:08;;;;;;;;;;;;;;;15.24;65.13;100395.50;1267029;23;697;-70
2022/11/15 01:56:58;;;;;;;;;;;;;;;15.22;65.50;100395.69;1267244;23;677;-71
2022/11/15 01:57:49;;;;;;;;;;;;;;;15.23;65.29;100396.50;1264920;23;610;-70
2022/11/15 01:58:39;;;;;;;;;;;;;;;15.24;65.37;100399.03;1265747;23;662;-69
2022/11/15 01:59:29;;;;;;;;;;;;;;;15.23;65.59;100397.34;1265484;23;587;-70
2022/11/15 02:00:20;;;;;;;;;;;;;;;15.24;65.26;100393.69;1265582;23;666;-70
2022/11/15 02:01:10;;;;;;;;;;;;;;;15.25;65.32;100400.75;1267247;23;786;-70
2022/11/15 02:02:01;;;;;;;;;;;;;;;15.26;65.18;100398.91;1265330;23;1071;-70
2022/11/15 02:02:51;;;;;;;;;;;;;;;15.26;65.74;100396.22;1265612;23;1936;-69
2022/11/15 02:03:42;;;;;;;;;;;;;;;15.23;65.59;100393.81;1265650;23;602;-70
2022/11/15 02:04:32;;;;;;;;;;;;;;;15.25;65.68;100399.91;1265627;23;558;-70
2022/11/15 02:05:22;;;;;;;;;;;;;;;15.26;65.55;100402.44;1265460;23;677;-70
2022/11/15 02:06:13;;;;;;;;;;;;;;;15.29;65.36;100404.84;1260798;23;642;-70
2022/11/15 02:07:03;;;;;;;;;;;;;;;15.26;65.14;100389.03;1262690;23;574;-70
2022/11/15 02:07:54;;;;;;;;;;;;;;;15.25;65.40;100394.53;1267111;23;650;-70
2022/11/15 02:08:44;;;;;;;;;;;;;;;15.24;65.39;100398.19;1267172;23;634;-70
2022/11/15 02:09:34;;;;;;;;;;;;;;;15.24;65.60;100392.81;1267189;23;653;-70
2022/11/15 02:10:25;;;;;;;;;;;;;;;15.23;65.84;100394.66;1267219;23;669;-70
2022/11/15 02:11:15;;;;;;;;;;;;;;;15.25;65.86;100395.38;1265405;23;678;-70
2022/11/15 02:12:06;;;;;;;;;;;;;;;15.24;65.78;100391.00;1267217;23;642;-70
2022/11/15 02:12:56;;;;;;;;;;;;;;;15.25;66.25;100399.91;1260786;23;677;-71
2022/11/15 02:13:47;;;;;;;;;;;;;;;15.24;65.82;100392.81;1261596;23;653;-71
2022/11/15 02:14:37;;;;;;;;;;;;;;;15.25;65.70;100391.84;1267283;23;677;-70
2022/11/15 02:15:27;;;;;;;;;;;;;;;15.23;66.02;100391.97;1266612;23;630;-71
2022/11/15 02:16:18;;;;;;;;;;;;;;;15.23;65.58;100389.28;1265632;23;667;-71
2022/11/15 02:17:08;;;;;;;;;;;;;;;15.23;66.00;100383.06;1266334;23;752;-71
2022/11/15 02:17:59;;;;;;;;;;;;;;;15.25;66.12;100383.78;1265520;23;658;-70
2022/11/15 02:18:49;;;;;;;;;;;;;;;15.26;66.01;100370.22;1265704;23;623;-70
2022/11/15 02:19:40;;;;;;;;;;;;;;;15.24;65.73;100368.66;1265413;23;654;-70
2022/11/15 02:20:30;;;;;;;;;;;;;;;15.23;66.07;100375.88;1265680;23;661;-70
2022/11/15 02:21:20;;;;;;;;;;;;;;;15.24;66.10;100374.88;1267196;23;616;-71
2022/11/15 02:22:11;;;;;;;;;;;;;;;15.26;65.70;100377.44;1267098;23;669;-71
2022/11/15 02:23:01;;;;;;;;;;;;;;;15.26;65.56;100375.59;1265228;23;1885;-71
2022/11/15 02:23:52;;;;;;;;;;;;;;;15.23;65.77;100364.28;1265567;23;657;-71
2022/11/15 02:24:42;;;;;;;;;;;;;;;15.18;65.80;100363.88;1265800;23;657;-71
2022/11/15 02:25:33;;;;;;;;;;;;;;;15.20;65.84;100370.81;1267196;23;606;-71
2022/11/15 02:26:23;;;;;;;;;;;;;;;15.22;65.80;100366.16;1265823;23;630;-71
2022/11/15 02:27:13;;;;;;;;;;;;;;;15.20;65.89;100364.59;1264884;23;622;-71
2022/11/15 02:28:04;;;;;;;;;;;;;;;15.20;65.97;100360.06;1265501;23;634;-71
2022/11/15 02:28:54;;;;;;;;;;;;;;;15.21;65.56;100363.63;1265427;23;602;-71
2022/11/15 02:29:45;;;;;;;;;;;;;;;15.22;66.05;100357.25;1265588;23;638;-71
2022/11/15 02:30:35;;;;;;;;;;;;;;;15.22;65.84;100362.63;1265720;23;639;-71
2022/11/15 02:31:26;;;;;;;;;;;;;;;15.25;65.72;100367.69;1265401;23;634;-71
2022/11/15 02:32:16;;;;;;;;;;;;;;;15.25;65.90;100354.25;1267055;23;622;-71
2022/11/15 02:33:06;;;;;;;;;;;;;;;15.24;66.16;100360.63;1265392;23;576;-71
2022/11/15 02:33:57;;;;;;;;;;;;;;;15.22;66.04;100358.09;1267238;23;661;-71
2022/11/15 02:34:47;;;;;;;;;;;;;;;15.22;66.17;100351.88;1260683;23;693;-71
2022/11/15 02:35:38;;;;;;;;;;;;;;;15.21;66.04;100352.88;1261660;23;630;-71
2022/11/15 02:36:28;;;;;;;;;;;;;;;15.22;65.91;100349.19;1267169;23;606;-71
2022/11/15 02:37:18;;;;;;;;;;;;;;;15.21;65.83;100353.72;1267115;23;723;-71
2022/11/15 02:38:09;;;;;;;;;;;;;;;15.22;65.79;100355.41;1265574;23;751;-71
2022/11/15 02:38:59;;;;;;;;;;;;;;;15.22;66.11;100352.72;1266284;23;734;-70
2022/11/15 02:39:50;;;;;;;;;;;;;;;15.21;66.17;100353.72;1267049;23;606;-71
2022/11/15 02:40:40;;;;;;;;;;;;;;;15.24;66.00;100349.88;1265666;23;665;-71
2022/11/15 02:41:31;;;;;;;;;;;;;;;15.24;66.02;100349.88;1264861;23;607;-71
2022/11/15 02:44:39;;;;;;;;;;;;;;;15.22;65.78;100342.00;1268053;23;621;-70
2022/11/15 02:45:30;;;;;;;;;;;;;;;15.24;66.08;100339.13;1265627;23;641;-71
2022/11/15 02:46:20;;;;;;;;;;;;;;;15.23;65.68;100332.06;1267277;23;907;-70
2022/11/15 02:47:14;;;;;;;;;;;;;;;15.24;66.16;100340.00;1265451;23;638;-71
2022/11/15 02:48:04;;;;;;;;;;;;;;;15.22;65.79;100335.78;1265687;23;622;-71
2022/11/15 02:48:55;;;;;;;;;;;;;;;15.23;66.04;100337.44;1267114;23;613;-71
2022/11/15 02:49:45;;;;;;;;;;;;;;;15.24;65.72;100331.09;1265567;23;606;-71
2022/11/15 02:50:35;;;;;;;;;;;;;;;15.23;66.01;100326.72;1265472;23;655;-70
2022/11/15 02:51:26;;;;;;;;;;;;;;;15.21;65.75;100334.94;1265452;23;587;-71
2022/11/15 02:52:16;;;;;;;;;;;;;;;15.20;65.98;100333.22;1265249;23;618;-70
2022/11/15 02:53:07;;;;;;;;;;;;;;;15.19;66.14;100333.38;1265419;23;590;-70
2022/11/15 02:53:57;;;;;;;;;;;;;;;15.20;65.90;100321.66;1265758;23;657;-70
2022/11/15 02:54:48;;;;;;;;;;;;;;;15.22;66.19;100333.09;1265491;23;638;-70
2022/11/15 02:55:38;;;;;;;;;;;;;;;15.21;66.12;100326.88;1265791;23;634;-70
2022/11/15 02:56:29;;;;;;;;;;;;;;;15.21;66.03;100324.19;1264745;23;622;-70
2022/11/15 02:57:19;;;;;;;;;;;;;;;15.23;66.09;100326.72;1266243;23;740;-71
2022/11/15 02:58:10;;;;;;;;;;;;;;;15.20;66.05;100318.97;1265455;23;657;-70
2022/11/15 02:59:00;;;;;;;;;;;;;;;15.20;66.10;100316.28;1265668;23;693;-71
2022/11/15 02:59:51;;;;;;;;;;;;;;;15.18;66.02;100326.31;1265401;23;626;-70
2022/11/15 03:00:41;;;;;;;;;;;;;;;15.19;66.46;100312.75;1265548;23;884;-70
2022/11/15 03:01:31;;;;;;;;;;;;;;;15.19;66.04;100319.97;1267208;23;724;-70
2022/11/15 03:02:22;;;;;;;;;;;;;;;15.20;66.21;100322.50;1265284;23;1134;-70
2022/11/15 03:03:12;;;;;;;;;;;;;;;15.22;65.90;100314.31;1267370;23;677;-70
2022/11/15 03:04:03;;;;;;;;;;;;;;;15.21;66.08;100323.34;1265401;23;647;-70
2022/11/15 03:04:53;;;;;;;;;;;;;;;15.18;66.15;100319.09;1260655;23;622;-70
2022/11/15 03:05:44;;;;;;;;;;;;;;;15.20;66.14;100313.59;1262375;23;649;-70
2022/11/15 03:06:34;;;;;;;;;;;;;;;15.21;66.08;100315.28;1267162;23;668;-70
2022/11/15 03:07:25;;;;;;;;;;;;;;;15.21;65.88;100318.81;1265378;23;614;-70
2022/11/15 03:08:15;;;;;;;;;;;;;;;15.22;65.81;100311.63;1265604;23;666;-70
2022/11/15 03:09:06;;;;;;;;;;;;;;;15.22;66.20;100325.03;1265306;23;630;-70
2022/11/15 03:09:56;;;;;;;;;;;;;;;15.23;65.86;100318.66;1265629;23;638;-70
2022/11/15 03:10:47;;;;;;;;;;;;;;;15.22;66.31;100317.84;1265539;23;564;-70
2022/11/15 03:11:37;;;;;;;;;;;;;;;15.24;66.17;100323.88;1265536;23;614;-70
2022/11/15 03:12:27;;;;;;;;;;;;;;;15.22;66.09;100319.69;1267114;23;601;-71
2022/11/15 03:13:18;;;;;;;;;;;;;;;15.23;66.10;100321.34;1265470;23;630;-70
2022/11/15 03:14:08;;;;;;;;;;;;;;;15.21;66.18;100318.81;1265497;23;645;-70
2022/11/15 03:14:59;;;;;;;;;;;;;;;15.22;66.01;100317.00;1267094;23;658;-70
2022/11/15 03:15:49;;;;;;;;;;;;;;;15.23;65.92;100326.72;1265406;23;733;-71
2022/11/15 03:16:39;;;;;;;;;;;;;;;15.22;66.05;100325.03;1265343;23;654;-71
2022/11/15 03:17:30;;;;;;;;;;;;;;;15.19;66.11;100325.31;1265475;23;677;-70
2022/11/15 03:18:20;;;;;;;;;;;;;;;15.20;66.06;100332.38;1265656;23;646;-70
2022/11/15 03:19:11;;;;;;;;;;;;;;;15.20;66.03;100325.19;1267169;23;629;-71
2022/11/15 03:20:01;;;;;;;;;;;;;;;15.19;66.26;100328.84;1267070;23;992;-70
2022/11/15 03:20:52;;;;;;;;;;;;;;;15.20;66.08;100322.50;1265472;23;646;-70
2022/11/15 03:21:42;;;;;;;;;;;;;;;15.21;66.41;100326.03;1265644;23;615;-70
2022/11/15 03:22:32;;;;;;;;;;;;;;;15.20;66.05;100322.50;1267064;23;621;-69
2022/11/15 03:23:23;;;;;;;;;;;;;;;15.20;66.09;100330.56;1260753;23;603;-70
2022/11/15 03:24:13;;;;;;;;;;;;;;;15.20;66.02;100330.56;1259996;23;692;-70
2022/11/15 03:25:04;;;;;;;;;;;;;;;15.18;66.51;100327.16;1266498;23;622;-70
2022/11/15 03:25:54;;;;;;;;;;;;;;;15.20;66.19;100330.56;1265781;23;673;-70
2022/11/15 03:26:45;;;;;;;;;;;;;;;15.20;66.40;100324.34;1267058;23;591;-70
2022/11/15 03:27:35;;;;;;;;;;;;;;;15.20;66.06;100321.66;1267128;23;649;-70
2022/11/15 03:28:26;;;;;;;;;;;;;;;15.17;66.22;100324.63;1265280;23;602;-70
2022/11/15 03:29:16;;;;;;;;;;;;;;;15.17;66.30;100324.63;1265550;23;666;-69
2022/11/15 03:30:06;;;;;;;;;;;;;;;15.18;66.37;100324.47;1266119;23;672;-69
2022/11/15 03:30:57;;;;;;;;;;;;;;;15.20;66.21;100325.19;1265431;23;638;-69
2022/11/15 03:31:47;;;;;;;;;;;;;;;15.20;65.81;100318.97;1265586;23;658;-69
2022/11/15 03:32:38;;;;;;;;;;;;;;;15.20;66.26;100317.13;1265807;23;642;-70
2022/11/15 03:33:28;;;;;;;;;;;;;;;15.18;66.16;100320.94;1265872;23;627;-70
2022/11/15 03:34:18;;;;;;;;;;;;;;;15.21;66.16;100320.66;1267611;23;657;-69
2022/11/15 03:35:09;;;;;;;;;;;;;;;15.20;66.34;100316.28;1267405;23;650;-70
2022/11/15 03:35:59;;;;;;;;;;;;;;;15.20;66.22;100316.28;1265622;23;618;-69
2022/11/15 03:36:50;;;;;;;;;;;;;;;15.19;66.42;100319.97;1265714;23;629;-70
2022/11/15 03:37:40;;;;;;;;;;;;;;;15.18;66.57;100319.09;1261190;23;758;-69
2022/11/15 03:38:31;;;;;;;;;;;;;;;15.20;66.28;100327.03;1262177;23;669;-70
2022/11/15 03:39:22;;;;;;;;;;;;;;;15.21;66.34;100315.28;1266077;23;589;-69
2022/11/15 03:40:12;;;;;;;;;;;;;;;15.21;66.20;100318.81;1265985;23;677;-70
2022/11/15 03:41:02;;;;;;;;;;;;;;;15.19;66.28;100319.97;1267494;23;619;-70
2022/11/15 03:41:56;;;;;;;;;;;;;;;15.20;66.32;100322.50;1265805;23;666;-71
2022/11/15 03:42:46;;;;;;;;;;;;;;;15.20;66.48;100327.03;1266537;23;1900;-71
2022/11/15 03:43:37;;;;;;;;;;;;;;;15.19;66.27;100317.28;1265814;23;611;-70
2022/11/15 03:44:27;;;;;;;;;;;;;;;15.21;65.98;100316.16;1266011;23;662;-70
2022/11/15 03:45:18;;;;;;;;;;;;;;;15.20;66.10;100324.34;1265730;23;619;-70
2022/11/15 03:46:08;;;;;;;;;;;;;;;15.21;66.00;100320.66;1265884;23;788;-71
2022/11/15 03:46:58;;;;;;;;;;;;;;;15.19;66.26;100325.31;1265757;23;654;-71
2022/11/15 03:47:49;;;;;;;;;;;;;;;15.19;66.22;100323.50;1265803;23;607;-70
2022/11/15 03:48:39;;;;;;;;;;;;;;;15.18;66.55;100329.00;1265676;23;614;-71
2022/11/15 03:49:30;;;;;;;;;;;;;;;15.17;66.35;100325.47;1267360;23;606;-70
2022/11/15 03:50:20;;;;;;;;;;;;;;;15.19;66.17;100326.16;1265939;23;622;-69
2022/11/15 03:51:11;;;;;;;;;;;;;;;15.19;66.39;100320.81;1266505;23;614;-70
2022/11/15 03:52:01;;;;;;;;;;;;;;;15.18;66.23;100324.47;1265945;23;606;-70
2022/11/15 03:52:52;;;;;;;;;;;;;;;15.17;66.53;100322.78;1265718;23;614;-70
2022/11/15 03:53:42;;;;;;;;;;;;;;;15.19;66.51;100319.97;1265989;23;570;-70
2022/11/15 03:54:33;;;;;;;;;;;;;;;15.19;66.25;100314.59;1261034;23;763;-70
2022/11/15 03:55:23;;;;;;;;;;;;;;;15.14;66.51;100312.31;1262711;23;641;-70
2022/11/15 03:56:13;;;;;;;;;;;;;;;15.18;66.42;100310.22;1267701;23;660;-71
2022/11/15 03:57:04;;;;;;;;;;;;;;;15.17;66.32;100317.41;1265763;23;662;-70
2022/11/15 03:57:54;;;;;;;;;;;;;;;15.18;66.53;100318.25;1265934;23;705;-70
2022/11/15 03:58:45;;;;;;;;;;;;;;;15.19;66.50;100319.97;1265710;23;626;-69
2022/11/15 03:59:35;;;;;;;;;;;;;;;15.19;66.42;100310.06;1265957;23;697;-69
2022/11/15 04:00:26;;;;;;;;;;;;;;;15.20;66.50;100321.66;1265582;23;599;-71
2022/11/15 04:01:16;;;;;;;;;;;;;;;15.17;66.65;100311.19;1265807;23;646;-70
2022/11/15 04:02:06;;;;;;;;;;;;;;;15.18;66.41;100312.88;1265668;23;1176;-71
2022/11/15 04:02:57;;;;;;;;;;;;;;;15.19;66.36;100309.22;1265611;23;1952;-71
2022/11/15 04:03:47;;;;;;;;;;;;;;;15.18;66.60;100312.88;1265854;23;681;-71
2022/11/15 04:04:38;;;;;;;;;;;;;;;15.19;66.40;100307.38;1265622;23;603;-71
2022/11/15 04:05:28;;;;;;;;;;;;;;;15.20;66.46;100317.13;1265983;23;987;-71
2022/11/15 04:06:18;;;;;;;;;;;;;;;15.20;66.43;100313.59;1265656;23;658;-70
2022/11/15 04:07:09;;;;;;;;;;;;;;;15.17;66.23;100309.34;1265777;23;594;-70
2022/11/15 04:07:59;;;;;;;;;;;;;;;15.17;66.45;100316.56;1265922;23;654;-71
2022/11/15 04:08:50;;;;;;;;;;;;;;;15.17;66.52;100317.41;1265689;23;638;-71
2022/11/15 04:10:49;;;;;;;;;;;;;;;15.17;66.63;100311.19;1268203;23;625;-71
2022/11/15 04:11:40;;;;;;;;;;;;;;;15.17;66.88;100309.34;1265753;23;662;-71
2022/11/15 04:12:30;;;;;;;;;;;;;;;15.16;66.51;100310.34;1265935;23;993;-71
2022/11/15 04:13:21;;;;;;;;;;;;;;;15.15;66.76;100311.34;1265614;23;635;-71
2022/11/15 04:14:11;;;;;;;;;;;;;;;15.15;66.52;100311.34;1267428;23;666;-70
2022/11/15 04:15:08;;;;;;;;;;;;;;;15.16;66.91;100304.97;1267435;23;611;-70
2022/11/15 04:15:58;;;;;;;;;;;;;;;15.15;66.88;100305.13;1265897;23;689;-70
2022/11/15 04:16:48;;;;;;;;;;;;;;;15.14;66.99;100308.78;1265596;23;611;-70
2022/11/15 04:17:39;;;;;;;;;;;;;;;15.14;66.81;100309.63;1265696;23;661;-70
2022/11/15 04:18:29;;;;;;;;;;;;;;;15.17;66.81;100300.47;1265989;23;626;-70
2022/11/15 04:24:12;;;;;;;;;;;;;;;15.17;67.07;100303.13;1268172;23;661;-70
2022/11/15 04:25:02;;;;;;;;;;;;;;;15.17;66.44;100311.19;1267433;23;653;-70
2022/11/15 04:25:52;;;;;;;;;;;;;;;15.17;66.49;100300.47;1266011;23;689;-70
2022/11/15 04:26:43;;;;;;;;;;;;;;;15.18;66.84;100307.53;1265785;23;619;-70
2022/11/15 04:27:33;;;;;;;;;;;;;;;15.18;67.02;100304.84;1265925;23;662;-70
2022/11/15 04:28:24;;;;;;;;;;;;;;;15.17;66.79;100312.03;1265643;23;614;-70
2022/11/15 04:30:23;;;;;;;;;;;;;;;15.18;66.56;100302.16;1268347;23;562;-70
2022/11/15 04:31:13;;;;;;;;;;;;;;;15.16;66.80;100296.06;1266309;23;704;-70
2022/11/15 04:32:04;;;;;;;;;;;;;;;15.18;66.80;100300.31;1265630;23;610;-70
2022/11/15 04:32:54;;;;;;;;;;;;;;;15.19;66.70;100291.28;1266016;23;686;-70
2022/11/15 04:33:45;;;;;;;;;;;;;;;15.17;67.14;100290.56;1265819;23;607;-70
2022/11/15 04:34:35;;;;;;;;;;;;;;;15.18;66.94;100296.78;1265932;23;665;-70
2022/11/15 04:35:26;;;;;;;;;;;;;;;15.19;67.24;100298.47;1265575;23;631;-70